Airfield :
LOGIN :

Register | Disclaimer

   EN    FR    IT 

 










Legend :    VFR   Marginal VFR   IFR   Intensive IFR   Very Intensive IFR
Visi :
Ceiling :
>= 8 km
>= 3000ft
5 to 8 km
1000 to 3000 ft
1500m to 5 km
500 to 1000 ft
800 to 1500m
200 to 500 ft
< 800m
< 200 ft
Symbols :   Thunderstorms  Fog  Heavy snow  Heavy precipitations  Wind > 20 kt
SIGMETs :     Misc.  Thunderstorms  Icing  Turbulence  Mountain Waves  Volcanic Ashes






- Airport Elevation : 278 ft
- IATA code : RJK


LDRI - Rijeka

CURRENT METAR :
  • 011200Z VRB02KT 9999 BKN035 11/03 Q1020

EXPIRED METARs :
  • 011130Z VRB02KT 9999 BKN040 11/03 Q1020
  • 011100Z VRB02KT 9999 BKN040 10/03 Q1021
  • 011030Z VRB02KT 9999 SCT040 10/03 Q1021
  • 011000Z 11005KT 040V140 9999 FEW040 11/03 Q1021
  • 010930Z 10004KT 070V130 9999 SCT040 10/02 Q1021

TAF TAF LDRI
Valid from the 01 at 12:00 until the 02 at 12:00 UTC


011125Z 0112/0212 12004KT CAVOK TX12/0113Z TN01/0205Z
PROB30
TEMPO 0122/0208 4000 BR BKN010



MET'MAP, your aeronautical weather chart ! - Copyright ORBIFLY December 2007 - Disclaimer

ORBIFLY MET'MAP TEAM :

Programming & Development : Alexandra Zaïnal
Original concept : Baudouin d'Aumeries
Technical & hardware support : Manuel Goepfert
Assistance : Marc-Olivier Méhu




SOURCES & CREDITS :

   NOAA